»·PEaware :: DAL1989 KPDX-KBZN

DAL1989 :: KPDX-KBZN

FLIGHT INFORMATION

Flight Status: Arrived
Operator:
Delta Air Lines
More flights by this operator :: More flights under this callsign
Pilot: John L. (29598)
Aircraft: AIRBUS A320
(A320)
More flights by this aircraft type
Origin: KPDX Portland Intl
United States
Destination: KBZN Gallatin
United States
More flights between these airports :: More routes between these airports
Route: LAVAA6 PDT J16 HIA
File this flight plan on PilotEdge
Remarks:
Altitude:
(Current/Filed)
37,000ft
Speed:
(Current/Filed)
470kts
Departed: 24-Jan-21 07:54 PM
Arrived: 24-Jan-21 09:07 PM
Distance/Time
Traveled:
479nm/1:13
Distance/Time
To Go:
Arrived

Flight Plot

Page will automatically refresh every two minutes.

Flight plan parsing failed; only flown route is shown


Map Options




Map Legend


Flown Route
Filed Route
Departure Airport
Arrival Airport
Navaid (VOR, NDB)
Fix

Horizontal Profiles

Position Reports

Time Latitude Longitude Heading Altitude Ground
Speed
24-Jan-21 19:26 45.590953 -122.593566 206 31ft 0kts
24-Jan-21 19:27 45.590953 -122.593566 206 31ft 0kts
24-Jan-21 19:28 45.590953 -122.593566 206 31ft 0kts
24-Jan-21 19:29 45.590953 -122.593566 206 31ft 0kts
24-Jan-21 19:30 45.590953 -122.593566 206 31ft 0kts
24-Jan-21 19:31 45.590953 -122.593566 206 31ft 0kts
24-Jan-21 19:32 45.590953 -122.593566 206 31ft 0kts
24-Jan-21 19:33 45.590953 -122.593566 206 31ft 0kts
24-Jan-21 19:34 45.590953 -122.593566 206 31ft 0kts
24-Jan-21 19:35 45.590953 -122.593566 206 31ft 0kts
24-Jan-21 19:36 45.590953 -122.593566 206 31ft 0kts
24-Jan-21 19:37 45.590953 -122.593566 206 31ft 0kts
24-Jan-21 19:38 45.590953 -122.593566 206 31ft 0kts
24-Jan-21 19:40 45.590953 -122.593566 206 31ft 0kts
24-Jan-21 19:41 45.590953 -122.593566 206 31ft 0kts
24-Jan-21 19:42 45.590953 -122.593566 206 31ft 0kts
24-Jan-21 19:43 45.590953 -122.593566 206 31ft 0kts
24-Jan-21 19:44 45.590953 -122.593566 206 31ft 0kts
24-Jan-21 19:45 45.590969 -122.593554 207 31ft 1kts
24-Jan-21 19:46 45.591245 -122.592951 295 31ft 0kts
24-Jan-21 19:47 45.591207 -122.592859 299 31ft 0kts
24-Jan-21 19:48 45.591207 -122.592859 299 31ft 0kts
24-Jan-21 19:49 45.591207 -122.592859 299 31ft 0kts
24-Jan-21 19:50 45.592381 -122.594787 298 31ft 13kts
24-Jan-21 19:51 45.594296 -122.599704 299 31ft 13kts
24-Jan-21 19:52 45.595584 -122.600561 28 31ft 0kts
24-Jan-21 19:53 45.595584 -122.600561 28 31ft 0kts
24-Jan-21 19:54 45.595370 -122.597137 119 31ft 62kts
24-Jan-21 19:55 45.577176 -122.538763 106 2141ft 206kts
24-Jan-21 19:56 45.561273 -122.441088 103 4572ft 286kts
24-Jan-21 19:56 45.545724 -122.349066 96 7612ft 294kts
24-Jan-21 19:57 45.587584 -122.252879 44 10718ft 308kts
24-Jan-21 19:58 45.650919 -122.151231 59 12507ft 365kts
24-Jan-21 19:59 45.694953 -122.016273 65 14843ft 379kts
24-Jan-21 20:01 45.744797 -121.854446 79 15131ft 383kts
24-Jan-21 20:01 45.746074 -121.727681 91 15159ft 380kts
24-Jan-21 20:02 45.745210 -121.573411 91 16995ft 394kts
24-Jan-21 20:03 45.744105 -121.413889 92 19050ft 407kts
24-Jan-21 20:04 45.742740 -121.250101 94 20938ft 417kts
24-Jan-21 20:05 45.741095 -121.082210 94 22672ft 425kts
24-Jan-21 20:06 45.739210 -120.913290 94 23044ft 425kts
24-Jan-21 20:07 45.737006 -120.741668 95 24401ft 435kts
24-Jan-21 20:08 45.734492 -120.566909 94 25783ft 443kts
24-Jan-21 20:09 45.731689 -120.389365 94 27114ft 450kts
24-Jan-21 20:10 45.728545 -120.208663 95 28241ft 457kts
24-Jan-21 20:11 45.725060 -120.024985 95 29261ft 464kts
24-Jan-21 20:12 45.721303 -119.841374 95 30564ft 462kts
24-Jan-21 20:13 45.717207 -119.657081 94 31674ft 464kts
24-Jan-21 20:14 45.712802 -119.472103 94 32733ft 465kts
24-Jan-21 20:15 45.708094 -119.286993 95 33705ft 466kts
24-Jan-21 20:16 45.703089 -119.101848 94 34651ft 467kts
24-Jan-21 20:17 45.699703 -118.916189 88 35556ft 468kts
24-Jan-21 20:18 45.709465 -118.730617 87 36420ft 467kts
24-Jan-21 20:19 45.718938 -118.545478 87 37063ft 468kts
24-Jan-21 20:20 45.728145 -118.359859 87 37077ft 466kts
24-Jan-21 20:21 45.737018 -118.174726 87 37078ft 467kts
24-Jan-21 20:22 45.745618 -117.989038 87 37080ft 467kts
24-Jan-21 20:23 45.753899 -117.803770 87 37081ft 467kts
24-Jan-21 20:24 45.761912 -117.617654 87 37076ft 468kts
24-Jan-21 20:25 45.769602 -117.431851 87 37078ft 468kts
24-Jan-21 20:26 45.777041 -117.244763 88 37078ft 469kts
24-Jan-21 20:27 45.784139 -117.058607 88 37076ft 470kts
24-Jan-21 20:28 45.790978 -116.871210 88 37079ft 471kts
24-Jan-21 20:29 45.797502 -116.683991 88 37084ft 471kts
24-Jan-21 20:30 45.803738 -116.496240 88 37084ft 472kts
24-Jan-21 20:31 45.809666 -116.308418 89 37082ft 472kts
24-Jan-21 20:32 45.815279 -116.120660 89 37077ft 472kts
24-Jan-21 20:33 45.820584 -115.932569 89 37075ft 472kts
24-Jan-21 20:34 45.825551 -115.745176 89 37078ft 472kts
24-Jan-21 20:35 45.830327 -115.556796 89 37074ft 473kts
24-Jan-21 20:36 45.834725 -115.368482 89 37077ft 473kts
24-Jan-21 20:37 45.838807 -115.179526 89 37077ft 473kts
24-Jan-21 20:38 45.842557 -114.991357 89 37070ft 474kts
24-Jan-21 20:39 45.844786 -114.801881 88 36930ft 475kts
24-Jan-21 20:40 45.849070 -114.612042 89 36929ft 476kts
24-Jan-21 20:41 45.852022 -114.422078 89 36933ft 477kts
24-Jan-21 20:42 45.854563 -114.232140 90 36939ft 477kts
24-Jan-21 20:43 45.856790 -114.041453 90 36918ft 478kts
24-Jan-21 20:44 45.858692 -113.851449 90 36913ft 478kts
24-Jan-21 20:45 45.860282 -113.661005 90 36911ft 478kts
24-Jan-21 20:46 45.861562 -113.469959 90 36430ft 476kts
24-Jan-21 20:47 45.862517 -113.280090 91 34038ft 479kts
24-Jan-21 20:48 45.863149 -113.087906 91 30995ft 488kts
24-Jan-21 20:49 45.863477 -112.891559 91 27601ft 497kts
24-Jan-21 20:50 45.863525 -112.696974 90 24442ft 463kts
24-Jan-21 20:51 45.863277 -112.520813 90 22379ft 426kts
24-Jan-21 20:52 45.862699 -112.353171 90 20250ft 412kts
24-Jan-21 20:53 45.861543 -112.194834 93 18260ft 374kts
24-Jan-21 20:54 45.847466 -112.049132 98 16941ft 359kts
24-Jan-21 20:55 45.833069 -111.908901 98 16959ft 355kts
24-Jan-21 20:56 45.818896 -111.768216 98 16967ft 355kts
24-Jan-21 20:57 45.816133 -111.629155 62 16968ft 346kts
24-Jan-21 20:58 45.873768 -111.538134 42 15594ft 295kts
24-Jan-21 20:59 45.930700 -111.457270 42 13441ft 284kts
24-Jan-21 21:00 45.982526 -111.374824 73 11270ft 276kts
24-Jan-21 21:01 45.952014 -111.284381 147 9236ft 256kts
24-Jan-21 21:02 45.884056 -111.277074 185 6866ft 246kts
24-Jan-21 21:03 45.831041 -111.248299 121 5621ft 177kts
24-Jan-21 21:04 45.807205 -111.197852 130 4750ft 137kts
24-Jan-21 21:05 45.781336 -111.157131 137 4453ft 115kts
24-Jan-21 21:06 45.774563 -111.150129 225 4467ft 3kts
24-Jan-21 21:07 45.774074 -111.150997 271 4468ft 6kts
24-Jan-21 21:08 45.776778 -111.154918 316 4462ft 19kts
24-Jan-21 21:09 45.779146 -111.159347 210 4458ft 6kts
24-Jan-21 21:10 45.778537 -111.160127 223 4460ft 0kts

Navigation Log

Ident Type
Flight plan parsing failed, navigation log unavailable